Prospect, Oregon
Current Conditions -  °F | °C
As of 4:53 AM on Saturday 25 Oct 2014 (Local Time) from KMFR Reporting Station
Light Rain Light Rain  
Wind Chill: 56°   Ceiling: 7000
Heat Index: 56°   Visibility: 10mi
Dew Point: 50°   Wind: 9mph
Humidity: 80%   Direction: 350°N
Pressure: 29.59"   Gusts: 20mph
Location:  42.75°N, 122.49°W
Report Text: KMFR 251153Z AUTO 35008G17KT 10SM -RA OVC070 13/10 A2959 RMK AO2 PK WND 16033/1108 WSHFT 1129 RAB27 SLP013 P0000 60000 70019 T01330100 10183 20100 53005
Loading
Personal Weather Stations






























Interactive Weather Map
Tropical Storm Tracking
New forecast layout! Learn more

10-Day Weather Forecast

Advertisements
Track Severe Weather on mobile